Parkin, Arkansas
Current Conditions -  °F | °C
As of 9:53 AM on Monday 29 Dec 2014 (Local Time) from KAWM Reporting Station
Overcast Overcast  
Wind Chill: -1°   Ceiling: 1200
Heat Index:   Visibility: 10mi
Dew Point:   Wind: 10mph
Humidity: 89%   Direction: 20°NNE
Pressure: 30.25"   Gusts: NA
Location:  35.26°N, 90.57°W
Report Text: KAWM 291553Z AUTO 02009KT 10SM OVC012 03/01 A3025 RMK AO2 SLP245 T00280011
Loading
Personal Weather Stations






























Interactive Weather Map New forecast layout! Learn more

10-Day Weather Forecast

Advertisements
Track Severe Weather on mobile